sensor_id;sensor_type;location;lat;lon;timestamp;temperature;humidity
582;DHT22;277;50.074;8.436;2023-11-21T00:00:16;10.70;99.90
582;DHT22;277;50.074;8.436;2023-11-21T00:02:44;10.70;99.90
582;DHT22;277;50.074;8.436;2023-11-21T00:05:13;10.70;99.90
582;DHT22;277;50.074;8.436;2023-11-21T00:07:41;10.80;99.90
582;DHT22;277;50.074;8.436;2023-11-21T00:10:10;10.80;99.90
582;DHT22;277;50.074;8.436;2023-11-21T00:12:38;10.90;99.90
582;DHT22;277;50.074;8.436;2023-11-21T00:15:10;10.90;99.90
582;DHT22;277;50.074;8.436;2023-11-21T00:17:38;10.90;99.90
582;DHT22;277;50.074;8.436;2023-11-21T00:20:06;11.00;99.90
582;DHT22;277;50.074;8.436;2023-11-21T00:22:34;11.00;99.90
582;DHT22;277;50.074;8.436;2023-11-21T00:25:02;10.90;99.90
582;DHT22;277;50.074;8.436;2023-11-21T00:27:30;10.90;99.90
582;DHT22;277;50.074;8.436;2023-11-21T00:29:58;10.90;99.90
582;DHT22;277;50.074;8.436;2023-11-21T00:32:27;10.90;99.90
582;DHT22;277;50.074;8.436;2023-11-21T00:34:55;10.70;99.90
582;DHT22;277;50.074;8.436;2023-11-21T00:37:23;10.40;99.90
582;DHT22;277;50.074;8.436;2023-11-21T00:39:51;10.40;99.90
582;DHT22;277;50.074;8.436;2023-11-21T00:42:19;10.40;99.90
582;DHT22;277;50.074;8.436;2023-11-21T00:44:48;10.50;99.90
582;DHT22;277;50.074;8.436;2023-11-21T00:47:16;10.50;99.90
582;DHT22;277;50.074;8.436;2023-11-21T00:49:45;10.10;99.90
582;DHT22;277;50.074;8.436;2023-11-21T00:52:13;10.10;99.90
582;DHT22;277;50.074;8.436;2023-11-21T00:54:40;10.10;99.90
582;DHT22;277;50.074;8.436;2023-11-21T00:57:08;10.00;99.90
582;DHT22;277;50.074;8.436;2023-11-21T00:59:38;9.90;99.90
582;DHT22;277;50.074;8.436;2023-11-21T01:02:06;10.00;99.90
582;DHT22;277;50.074;8.436;2023-11-21T01:04:36;9.90;99.90
582;DHT22;277;50.074;8.436;2023-11-21T01:07:06;9.90;99.90
582;DHT22;277;50.074;8.436;2023-11-21T01:09:34;9.80;99.90
582;DHT22;277;50.074;8.436;2023-11-21T01:12:02;9.70;99.90
582;DHT22;277;50.074;8.436;2023-11-21T01:14:30;9.60;99.90
582;DHT22;277;50.074;8.436;2023-11-21T01:16:58;9.80;99.90
582;DHT22;277;50.074;8.436;2023-11-21T01:19:26;10.00;99.90
582;DHT22;277;50.074;8.436;2023-11-21T01:21:55;10.20;99.90
582;DHT22;277;50.074;8.436;2023-11-21T01:24:25;10.30;99.90
582;DHT22;277;50.074;8.436;2023-11-21T01:26:53;10.40;99.90
582;DHT22;277;50.074;8.436;2023-11-21T01:29:21;10.50;99.90
582;DHT22;277;50.074;8.436;2023-11-21T01:31:49;10.60;99.90
582;DHT22;277;50.074;8.436;2023-11-21T01:34:16;10.70;99.90
582;DHT22;277;50.074;8.436;2023-11-21T01:36:45;10.80;99.90
582;DHT22;277;50.074;8.436;2023-11-21T01:39:13;10.80;99.90
582;DHT22;277;50.074;8.436;2023-11-21T01:41:43;10.90;99.90
582;DHT22;277;50.074;8.436;2023-11-21T01:44:11;10.90;99.90
582;DHT22;277;50.074;8.436;2023-11-21T01:46:39;11.00;99.90
582;DHT22;277;50.074;8.436;2023-11-21T01:49:08;11.00;99.90
582;DHT22;277;50.074;8.436;2023-11-21T01:51:39;11.00;99.90
582;DHT22;277;50.074;8.436;2023-11-21T01:54:07;11.00;99.90
582;DHT22;277;50.074;8.436;2023-11-21T01:56:45;10.90;99.90
582;DHT22;277;50.074;8.436;2023-11-21T01:59:14;10.80;99.90
582;DHT22;277;50.074;8.436;2023-11-21T02:01:45;10.70;99.90
582;DHT22;277;50.074;8.436;2023-11-21T02:04:13;10.60;99.90
582;DHT22;277;50.074;8.436;2023-11-21T02:06:42;10.50;99.90
582;DHT22;277;50.074;8.436;2023-11-21T02:09:11;10.30;99.90
582;DHT22;277;50.074;8.436;2023-11-21T02:11:41;10.30;99.90
582;DHT22;277;50.074;8.436;2023-11-21T02:14:11;10.30;99.90
582;DHT22;277;50.074;8.436;2023-11-21T02:16:40;10.30;99.90
582;DHT22;277;50.074;8.436;2023-11-21T02:19:08;10.20;99.90
582;DHT22;277;50.074;8.436;2023-11-21T02:21:37;10.10;99.90
582;DHT22;277;50.074;8.436;2023-11-21T02:24:08;10.10;99.90
582;DHT22;277;50.074;8.436;2023-11-21T02:26:36;10.20;99.90
582;DHT22;277;50.074;8.436;2023-11-21T02:29:04;10.20;99.90
582;DHT22;277;50.074;8.436;2023-11-21T02:31:32;10.10;99.90
582;DHT22;277;50.074;8.436;2023-11-21T02:34:00;10.20;99.90
582;DHT22;277;50.074;8.436;2023-11-21T02:36:28;10.20;99.90
582;DHT22;277;50.074;8.436;2023-11-21T02:38:56;10.10;99.90
582;DHT22;277;50.074;8.436;2023-11-21T02:41:25;10.10;99.90
582;DHT22;277;50.074;8.436;2023-11-21T02:43:53;10.00;99.90
582;DHT22;277;50.074;8.436;2023-11-21T02:46:21;9.90;99.90
582;DHT22;277;50.074;8.436;2023-11-21T02:48:49;9.90;99.90
582;DHT22;277;50.074;8.436;2023-11-21T02:51:17;9.90;99.90
582;DHT22;277;50.074;8.436;2023-11-21T02:53:45;9.90;99.90
582;DHT22;277;50.074;8.436;2023-11-21T02:56:13;9.90;99.90
582;DHT22;277;50.074;8.436;2023-11-21T02:58:42;10.00;99.90
582;DHT22;277;50.074;8.436;2023-11-21T03:01:11;10.00;99.90
582;DHT22;277;50.074;8.436;2023-11-21T03:03:39;10.00;99.90
582;DHT22;277;50.074;8.436;2023-11-21T03:06:08;10.00;99.90
582;DHT22;277;50.074;8.436;2023-11-21T03:08:36;9.90;99.90
582;DHT22;277;50.074;8.436;2023-11-21T03:11:03;10.00;99.90
582;DHT22;277;50.074;8.436;2023-11-21T03:13:31;9.80;99.90
582;DHT22;277;50.074;8.436;2023-11-21T03:16:00;9.70;99.90
582;DHT22;277;50.074;8.436;2023-11-21T03:18:28;9.70;99.90
582;DHT22;277;50.074;8.436;2023-11-21T03:20:56;9.60;99.90
582;DHT22;277;50.074;8.436;2023-11-21T03:23:24;9.60;99.90
582;DHT22;277;50.074;8.436;2023-11-21T03:25:52;9.50;99.90
582;DHT22;277;50.074;8.436;2023-11-21T03:28:20;9.50;99.90
582;DHT22;277;50.074;8.436;2023-11-21T03:30:48;9.40;99.90
582;DHT22;277;50.074;8.436;2023-11-21T03:33:17;9.40;99.90
582;DHT22;277;50.074;8.436;2023-11-21T03:35:45;9.30;99.90
582;DHT22;277;50.074;8.436;2023-11-21T03:38:12;9.30;99.90
582;DHT22;277;50.074;8.436;2023-11-21T03:40:40;9.30;99.90
582;DHT22;277;50.074;8.436;2023-11-21T03:43:08;9.30;99.90
582;DHT22;277;50.074;8.436;2023-11-21T03:45:36;9.20;99.90
582;DHT22;277;50.074;8.436;2023-11-21T03:48:04;9.30;99.90
582;DHT22;277;50.074;8.436;2023-11-21T03:50:33;9.30;99.90
582;DHT22;277;50.074;8.436;2023-11-21T03:53:01;9.30;99.90
582;DHT22;277;50.074;8.436;2023-11-21T03:55:28;9.20;99.90
582;DHT22;277;50.074;8.436;2023-11-21T03:57:57;9.30;99.90
582;DHT22;277;50.074;8.436;2023-11-21T04:00:25;9.20;99.90
582;DHT22;277;50.074;8.436;2023-11-21T04:02:54;9.10;99.90
582;DHT22;277;50.074;8.436;2023-11-21T04:05:22;9.10;99.90
582;DHT22;277;50.074;8.436;2023-11-21T04:07:52;9.10;99.90
582;DHT22;277;50.074;8.436;2023-11-21T04:10:20;9.00;99.90
582;DHT22;277;50.074;8.436;2023-11-21T04:12:48;9.10;99.90
582;DHT22;277;50.074;8.436;2023-11-21T04:15:16;9.10;99.90
582;DHT22;277;50.074;8.436;2023-11-21T04:17:44;9.10;99.90
582;DHT22;277;50.074;8.436;2023-11-21T04:20:12;9.10;99.90
582;DHT22;277;50.074;8.436;2023-11-21T04:22:40;9.10;99.90
582;DHT22;277;50.074;8.436;2023-11-21T04:25:10;9.20;99.90
582;DHT22;277;50.074;8.436;2023-11-21T04:27:39;9.10;99.90
582;DHT22;277;50.074;8.436;2023-11-21T04:30:07;9.20;99.90
582;DHT22;277;50.074;8.436;2023-11-21T04:32:36;9.30;99.90
582;DHT22;277;50.074;8.436;2023-11-21T04:35:04;9.20;99.90
582;DHT22;277;50.074;8.436;2023-11-21T04:37:32;9.20;99.90
582;DHT22;277;50.074;8.436;2023-11-21T04:40:00;9.10;99.90
582;DHT22;277;50.074;8.436;2023-11-21T04:42:29;9.10;99.90
582;DHT22;277;50.074;8.436;2023-11-21T04:44:57;9.40;99.90
582;DHT22;277;50.074;8.436;2023-11-21T04:47:24;9.30;99.90
582;DHT22;277;50.074;8.436;2023-11-21T04:49:52;9.30;99.90
582;DHT22;277;50.074;8.436;2023-11-21T04:52:20;9.40;99.90
582;DHT22;277;50.074;8.436;2023-11-21T04:54:48;9.50;99.90
582;DHT22;277;50.074;8.436;2023-11-21T04:57:15;9.40;99.90
582;DHT22;277;50.074;8.436;2023-11-21T04:59:46;9.50;99.90
582;DHT22;277;50.074;8.436;2023-11-21T05:02:13;9.50;99.90
582;DHT22;277;50.074;8.436;2023-11-21T05:04:59;9.40;99.90
582;DHT22;277;50.074;8.436;2023-11-21T05:07:27;9.50;99.90
582;DHT22;277;50.074;8.436;2023-11-21T05:09:58;9.60;99.90
582;DHT22;277;50.074;8.436;2023-11-21T05:12:26;9.70;99.90
582;DHT22;277;50.074;8.436;2023-11-21T05:14:55;9.70;99.90
582;DHT22;277;50.074;8.436;2023-11-21T05:17:24;9.90;99.90
582;DHT22;277;50.074;8.436;2023-11-21T05:19:52;9.90;99.90
582;DHT22;277;50.074;8.436;2023-11-21T05:22:20;10.00;99.90
582;DHT22;277;50.074;8.436;2023-11-21T05:24:48;10.20;99.90
582;DHT22;277;50.074;8.436;2023-11-21T05:27:16;10.10;99.90
582;DHT22;277;50.074;8.436;2023-11-21T05:29:44;10.00;99.90
582;DHT22;277;50.074;8.436;2023-11-21T05:32:13;9.70;99.90
582;DHT22;277;50.074;8.436;2023-11-21T05:34:41;9.50;99.90
582;DHT22;277;50.074;8.436;2023-11-21T05:37:09;9.40;99.90
582;DHT22;277;50.074;8.436;2023-11-21T05:39:37;9.40;99.90
582;DHT22;277;50.074;8.436;2023-11-21T05:42:04;9.30;99.90
582;DHT22;277;50.074;8.436;2023-11-21T05:44:32;9.30;99.90
582;DHT22;277;50.074;8.436;2023-11-21T05:47:01;9.20;99.90
582;DHT22;277;50.074;8.436;2023-11-21T05:49:31;9.20;99.90
582;DHT22;277;50.074;8.436;2023-11-21T05:51:59;9.30;99.90
582;DHT22;277;50.074;8.436;2023-11-21T05:54:28;9.30;99.90
582;DHT22;277;50.074;8.436;2023-11-21T05:56:56;9.20;99.90
582;DHT22;277;50.074;8.436;2023-11-21T05:59:24;9.20;99.90
582;DHT22;277;50.074;8.436;2023-11-21T06:01:52;9.30;99.90
582;DHT22;277;50.074;8.436;2023-11-21T06:04:20;9.30;99.90
582;DHT22;277;50.074;8.436;2023-11-21T06:06:52;9.40;99.90
582;DHT22;277;50.074;8.436;2023-11-21T06:09:20;9.40;99.90
582;DHT22;277;50.074;8.436;2023-11-21T06:11:48;9.40;99.90
582;DHT22;277;50.074;8.436;2023-11-21T06:14:16;9.50;99.90
582;DHT22;277;50.074;8.436;2023-11-21T06:16:45;9.50;99.90
582;DHT22;277;50.074;8.436;2023-11-21T06:19:12;9.60;99.90
582;DHT22;277;50.074;8.436;2023-11-21T06:21:41;9.60;99.90
582;DHT22;277;50.074;8.436;2023-11-21T06:24:13;9.60;99.90
582;DHT22;277;50.074;8.436;2023-11-21T06:26:42;9.60;99.90
582;DHT22;277;50.074;8.436;2023-11-21T06:29:10;9.60;99.90
582;DHT22;277;50.074;8.436;2023-11-21T06:31:38;9.50;99.90
582;DHT22;277;50.074;8.436;2023-11-21T06:34:07;9.60;99.90
582;DHT22;277;50.074;8.436;2023-11-21T06:36:36;9.60;99.90
582;DHT22;277;50.074;8.436;2023-11-21T06:39:03;9.60;99.90
582;DHT22;277;50.074;8.436;2023-11-21T06:41:35;9.50;99.90
582;DHT22;277;50.074;8.436;2023-11-21T06:44:05;9.50;99.90
582;DHT22;277;50.074;8.436;2023-11-21T06:46:33;9.50;99.90
582;DHT22;277;50.074;8.436;2023-11-21T06:49:01;9.50;99.90
582;DHT22;277;50.074;8.436;2023-11-21T06:51:29;9.50;99.90
582;DHT22;277;50.074;8.436;2023-11-21T06:53:56;9.40;99.90
582;DHT22;277;50.074;8.436;2023-11-21T06:56:24;9.30;99.90
582;DHT22;277;50.074;8.436;2023-11-21T06:58:53;9.40;99.90
582;DHT22;277;50.074;8.436;2023-11-21T07:01:21;9.40;99.90
582;DHT22;277;50.074;8.436;2023-11-21T07:03:49;9.40;99.90
582;DHT22;277;50.074;8.436;2023-11-21T07:06:17;9.30;99.90
582;DHT22;277;50.074;8.436;2023-11-21T07:08:45;9.30;99.90
582;DHT22;277;50.074;8.436;2023-11-21T07:11:13;10.10;99.90
582;DHT22;277;50.074;8.436;2023-11-21T07:13:41;11.50;99.90
582;DHT22;277;50.074;8.436;2023-11-21T07:16:10;11.70;99.90
582;DHT22;277;50.074;8.436;2023-11-21T07:18:38;12.00;99.90
582;DHT22;277;50.074;8.436;2023-11-21T07:21:06;12.40;99.90
582;DHT22;277;50.074;8.436;2023-11-21T07:23:35;12.30;99.90
582;DHT22;277;50.074;8.436;2023-11-21T07:26:03;12.10;99.90
582;DHT22;277;50.074;8.436;2023-11-21T07:28:35;11.70;99.90
582;DHT22;277;50.074;8.436;2023-11-21T07:31:03;11.40;99.90
582;DHT22;277;50.074;8.436;2023-11-21T07:33:32;11.00;99.90
582;DHT22;277;50.074;8.436;2023-11-21T07:36:00;10.90;99.90
582;DHT22;277;50.074;8.436;2023-11-21T07:38:28;10.70;99.90
582;DHT22;277;50.074;8.436;2023-11-21T07:40:55;10.50;99.90
582;DHT22;277;50.074;8.436;2023-11-21T07:43:23;10.30;99.90
582;DHT22;277;50.074;8.436;2023-11-21T07:45:52;10.10;99.90
582;DHT22;277;50.074;8.436;2023-11-21T07:48:20;10.00;99.90
582;DHT22;277;50.074;8.436;2023-11-21T07:50:49;9.90;99.90
582;DHT22;277;50.074;8.436;2023-11-21T07:53:17;9.80;99.90
582;DHT22;277;50.074;8.436;2023-11-21T07:55:44;9.70;99.90
582;DHT22;277;50.074;8.436;2023-11-21T07:58:13;9.70;99.90
582;DHT22;277;50.074;8.436;2023-11-21T08:00:41;9.70;99.90
582;DHT22;277;50.074;8.436;2023-11-21T08:03:09;9.60;99.90
582;DHT22;277;50.074;8.436;2023-11-21T08:05:38;9.70;99.90
582;DHT22;277;50.074;8.436;2023-11-21T08:08:07;9.60;99.90
582;DHT22;277;50.074;8.436;2023-11-21T08:10:35;9.60;99.90
582;DHT22;277;50.074;8.436;2023-11-21T08:13:03;9.80;99.90
582;DHT22;277;50.074;8.436;2023-11-21T08:15:30;9.60;99.90
582;DHT22;277;50.074;8.436;2023-11-21T08:17:59;9.70;99.90
582;DHT22;277;50.074;8.436;2023-11-21T08:20:26;9.80;99.90
582;DHT22;277;50.074;8.436;2023-11-21T08:22:55;9.70;99.90
582;DHT22;277;50.074;8.436;2023-11-21T08:25:25;9.70;99.90
582;DHT22;277;50.074;8.436;2023-11-21T08:27:53;9.60;99.90
582;DHT22;277;50.074;8.436;2023-11-21T08:30:21;9.60;99.90
582;DHT22;277;50.074;8.436;2023-11-21T08:32:50;9.70;99.90
582;DHT22;277;50.074;8.436;2023-11-21T08:35:20;9.60;99.90
582;DHT22;277;50.074;8.436;2023-11-21T08:37:48;9.60;99.90
582;DHT22;277;50.074;8.436;2023-11-21T08:40:15;9.70;99.90
582;DHT22;277;50.074;8.436;2023-11-21T08:42:45;9.60;99.90
582;DHT22;277;50.074;8.436;2023-11-21T08:45:13;9.70;99.90
582;DHT22;277;50.074;8.436;2023-11-21T08:47:41;9.70;99.90
582;DHT22;277;50.074;8.436;2023-11-21T08:50:11;9.70;99.90
582;DHT22;277;50.074;8.436;2023-11-21T08:52:39;9.80;99.90
582;DHT22;277;50.074;8.436;2023-11-21T08:55:08;9.80;99.90
582;DHT22;277;50.074;8.436;2023-11-21T08:57:39;9.90;99.90
582;DHT22;277;50.074;8.436;2023-11-21T09:00:09;9.90;99.90
582;DHT22;277;50.074;8.436;2023-11-21T09:02:38;9.90;99.90
582;DHT22;277;50.074;8.436;2023-11-21T09:05:08;9.90;99.90
582;DHT22;277;50.074;8.436;2023-11-21T09:07:37;10.00;99.90
582;DHT22;277;50.074;8.436;2023-11-21T09:10:06;10.00;99.90
582;DHT22;277;50.074;8.436;2023-11-21T09:12:34;10.00;99.90
582;DHT22;277;50.074;8.436;2023-11-21T09:15:02;10.10;99.90
582;DHT22;277;50.074;8.436;2023-11-21T09:17:32;10.10;99.90
582;DHT22;277;50.074;8.436;2023-11-21T09:20:00;10.20;99.90
582;DHT22;277;50.074;8.436;2023-11-21T09:22:30;10.20;99.90
582;DHT22;277;50.074;8.436;2023-11-21T09:24:58;10.20;99.90
582;DHT22;277;50.074;8.436;2023-11-21T09:27:26;10.10;99.90
582;DHT22;277;50.074;8.436;2023-11-21T09:29:54;10.00;99.90
582;DHT22;277;50.074;8.436;2023-11-21T09:32:22;10.00;99.90
582;DHT22;277;50.074;8.436;2023-11-21T09:34:51;10.00;99.90
582;DHT22;277;50.074;8.436;2023-11-21T09:37:20;10.10;99.90
582;DHT22;277;50.074;8.436;2023-11-21T09:39:48;10.20;99.90
582;DHT22;277;50.074;8.436;2023-11-21T09:42:17;10.20;99.90
582;DHT22;277;50.074;8.436;2023-11-21T09:44:48;10.30;99.90
582;DHT22;277;50.074;8.436;2023-11-21T09:47:21;10.40;99.90
582;DHT22;277;50.074;8.436;2023-11-21T09:49:51;10.50;99.90
582;DHT22;277;50.074;8.436;2023-11-21T09:52:22;10.60;99.90
582;DHT22;277;50.074;8.436;2023-11-21T09:54:52;10.50;99.90
582;DHT22;277;50.074;8.436;2023-11-21T09:57:20;10.60;99.90
582;DHT22;277;50.074;8.436;2023-11-21T09:59:49;10.70;99.90
582;DHT22;277;50.074;8.436;2023-11-21T10:02:18;10.70;99.90
582;DHT22;277;50.074;8.436;2023-11-21T10:04:47;10.70;99.90
582;DHT22;277;50.074;8.436;2023-11-21T10:07:16;10.80;99.90
582;DHT22;277;50.074;8.436;2023-11-21T10:09:45;10.80;99.90
582;DHT22;277;50.074;8.436;2023-11-21T10:12:13;10.80;99.90
582;DHT22;277;50.074;8.436;2023-11-21T10:14:42;10.70;99.90
582;DHT22;277;50.074;8.436;2023-11-21T10:17:11;10.80;99.90
582;DHT22;277;50.074;8.436;2023-11-21T10:19:40;10.80;99.90
582;DHT22;277;50.074;8.436;2023-11-21T10:22:08;11.00;99.90
582;DHT22;277;50.074;8.436;2023-11-21T10:24:37;11.10;99.90
582;DHT22;277;50.074;8.436;2023-11-21T10:27:17;11.10;99.90
582;DHT22;277;50.074;8.436;2023-11-21T10:29:45;11.30;99.90
582;DHT22;277;50.074;8.436;2023-11-21T10:32:13;11.50;99.90
582;DHT22;277;50.074;8.436;2023-11-21T10:34:41;11.50;99.90
582;DHT22;277;50.074;8.436;2023-11-21T10:37:12;11.60;99.90
582;DHT22;277;50.074;8.436;2023-11-21T10:39:42;11.80;99.90
582;DHT22;277;50.074;8.436;2023-11-21T10:42:10;11.90;99.90
582;DHT22;277;50.074;8.436;2023-11-21T10:44:38;12.00;99.90
582;DHT22;277;50.074;8.436;2023-11-21T10:47:08;12.30;99.90
582;DHT22;277;50.074;8.436;2023-11-21T10:49:38;12.50;99.90
582;DHT22;277;50.074;8.436;2023-11-21T10:52:07;12.30;99.90
582;DHT22;277;50.074;8.436;2023-11-21T10:54:34;12.30;99.90
582;DHT22;277;50.074;8.436;2023-11-21T10:57:04;12.30;99.90
582;DHT22;277;50.074;8.436;2023-11-21T10:59:33;12.50;99.90
582;DHT22;277;50.074;8.436;2023-11-21T11:02:05;12.60;99.90
582;DHT22;277;50.074;8.436;2023-11-21T11:04:37;12.80;99.90
582;DHT22;277;50.074;8.436;2023-11-21T11:07:05;13.10;99.90
582;DHT22;277;50.074;8.436;2023-11-21T11:09:36;13.40;99.90
582;DHT22;277;50.074;8.436;2023-11-21T11:12:05;13.60;99.90
582;DHT22;277;50.074;8.436;2023-11-21T11:14:33;13.70;99.90
582;DHT22;277;50.074;8.436;2023-11-21T11:17:02;13.60;99.90
582;DHT22;277;50.074;8.436;2023-11-21T11:19:32;13.70;99.90
582;DHT22;277;50.074;8.436;2023-11-21T11:22:00;13.60;99.90
582;DHT22;277;50.074;8.436;2023-11-21T11:24:40;13.50;99.90
582;DHT22;277;50.074;8.436;2023-11-21T11:27:19;13.60;99.90
582;DHT22;277;50.074;8.436;2023-11-21T11:29:54;13.80;99.90
582;DHT22;277;50.074;8.436;2023-11-21T11:32:27;13.90;99.90
582;DHT22;277;50.074;8.436;2023-11-21T11:35:01;13.90;99.90
582;DHT22;277;50.074;8.436;2023-11-21T11:37:31;14.00;99.90
582;DHT22;277;50.074;8.436;2023-11-21T11:39:59;14.10;99.90
582;DHT22;277;50.074;8.436;2023-11-21T11:42:28;14.10;99.90
582;DHT22;277;50.074;8.436;2023-11-21T11:44:57;14.10;99.90
582;DHT22;277;50.074;8.436;2023-11-21T11:47:25;14.10;99.90
582;DHT22;277;50.074;8.436;2023-11-21T11:50:02;14.20;99.90
582;DHT22;277;50.074;8.436;2023-11-21T11:52:35;14.00;99.90
582;DHT22;277;50.074;8.436;2023-11-21T11:55:04;13.90;99.90
582;DHT22;277;50.074;8.436;2023-11-21T11:57:33;14.10;99.90
582;DHT22;277;50.074;8.436;2023-11-21T12:00:11;14.10;99.90
582;DHT22;277;50.074;8.436;2023-11-21T12:02:44;13.90;99.90
582;DHT22;277;50.074;8.436;2023-11-21T12:05:13;13.70;99.90
582;DHT22;277;50.074;8.436;2023-11-21T12:07:45;13.30;99.90
582;DHT22;277;50.074;8.436;2023-11-21T12:10:13;13.10;99.90
582;DHT22;277;50.074;8.436;2023-11-21T12:12:48;12.90;99.90
582;DHT22;277;50.074;8.436;2023-11-21T12:15:17;12.70;99.90
582;DHT22;277;50.074;8.436;2023-11-21T12:17:45;12.60;99.90
582;DHT22;277;50.074;8.436;2023-11-21T12:20:13;12.50;99.90
582;DHT22;277;50.074;8.436;2023-11-21T12:22:45;12.40;99.90
582;DHT22;277;50.074;8.436;2023-11-21T12:25:15;12.40;99.90
582;DHT22;277;50.074;8.436;2023-11-21T12:27:45;12.30;99.90
582;DHT22;277;50.074;8.436;2023-11-21T12:30:16;12.20;99.90
582;DHT22;277;50.074;8.436;2023-11-21T12:32:47;12.10;99.90
582;DHT22;277;50.074;8.436;2023-11-21T12:35:16;12.00;99.90
582;DHT22;277;50.074;8.436;2023-11-21T12:37:46;12.00;99.90
582;DHT22;277;50.074;8.436;2023-11-21T12:40:14;12.00;99.90
582;DHT22;277;50.074;8.436;2023-11-21T12:42:44;11.90;99.90
582;DHT22;277;50.074;8.436;2023-11-21T12:45:20;11.90;99.90
582;DHT22;277;50.074;8.436;2023-11-21T12:47:48;11.80;99.90
582;DHT22;277;50.074;8.436;2023-11-21T12:50:18;11.80;99.90
582;DHT22;277;50.074;8.436;2023-11-21T12:52:50;11.80;99.90
582;DHT22;277;50.074;8.436;2023-11-21T12:55:20;11.80;99.90
582;DHT22;277;50.074;8.436;2023-11-21T12:57:49;11.80;99.90
582;DHT22;277;50.074;8.436;2023-11-21T13:00:19;11.80;99.90
582;DHT22;277;50.074;8.436;2023-11-21T13:02:54;11.80;99.90
582;DHT22;277;50.074;8.436;2023-11-21T13:05:24;11.80;99.90
582;DHT22;277;50.074;8.436;2023-11-21T13:07:52;11.70;99.90
582;DHT22;277;50.074;8.436;2023-11-21T13:10:22;11.70;99.90
582;DHT22;277;50.074;8.436;2023-11-21T13:12:52;11.70;99.90
582;DHT22;277;50.074;8.436;2023-11-21T13:15:22;11.80;99.90
582;DHT22;277;50.074;8.436;2023-11-21T13:17:51;11.70;99.90
582;DHT22;277;50.074;8.436;2023-11-21T13:20:20;11.70;99.90
582;DHT22;277;50.074;8.436;2023-11-21T13:22:48;11.50;99.90
582;DHT22;277;50.074;8.436;2023-11-21T13:25:16;11.50;99.90
582;DHT22;277;50.074;8.436;2023-11-21T13:27:46;11.50;99.90
582;DHT22;277;50.074;8.436;2023-11-21T13:30:14;11.60;99.90
582;DHT22;277;50.074;8.436;2023-11-21T13:32:50;11.60;99.90
582;DHT22;277;50.074;8.436;2023-11-21T13:35:18;11.70;99.90
582;DHT22;277;50.074;8.436;2023-11-21T13:37:57;11.70;99.90
582;DHT22;277;50.074;8.436;2023-11-21T13:40:26;11.80;99.90
582;DHT22;277;50.074;8.436;2023-11-21T13:42:54;11.80;99.90
582;DHT22;277;50.074;8.436;2023-11-21T13:45:24;11.90;99.90
582;DHT22;277;50.074;8.436;2023-11-21T13:47:55;11.80;99.90
582;DHT22;277;50.074;8.436;2023-11-21T13:50:25;11.90;99.90
582;DHT22;277;50.074;8.436;2023-11-21T13:52:58;11.80;99.90
582;DHT22;277;50.074;8.436;2023-11-21T13:55:30;11.70;99.90
582;DHT22;277;50.074;8.436;2023-11-21T13:57:58;11.70;99.90
582;DHT22;277;50.074;8.436;2023-11-21T14:00:26;11.70;99.90
582;DHT22;277;50.074;8.436;2023-11-21T14:03:12;11.80;99.90
582;DHT22;277;50.074;8.436;2023-11-21T14:05:49;11.70;99.90
582;DHT22;277;50.074;8.436;2023-11-21T14:08:18;11.80;99.90
582;DHT22;277;50.074;8.436;2023-11-21T14:10:47;11.70;99.90
582;DHT22;277;50.074;8.436;2023-11-21T14:13:22;11.80;99.90
582;DHT22;277;50.074;8.436;2023-11-21T14:15:50;11.60;99.90
582;DHT22;277;50.074;8.436;2023-11-21T14:18:22;11.50;99.90
582;DHT22;277;50.074;8.436;2023-11-21T14:20:57;11.50;99.90
582;DHT22;277;50.074;8.436;2023-11-21T14:23:24;11.40;99.90
582;DHT22;277;50.074;8.436;2023-11-21T14:25:52;11.20;99.90
582;DHT22;277;50.074;8.436;2023-11-21T14:28:20;11.10;99.90
582;DHT22;277;50.074;8.436;2023-11-21T14:30:49;11.00;99.90
582;DHT22;277;50.074;8.436;2023-11-21T14:33:17;10.90;99.90
582;DHT22;277;50.074;8.436;2023-11-21T14:35:47;10.80;99.90
582;DHT22;277;50.074;8.436;2023-11-21T14:38:14;10.80;99.90
582;DHT22;277;50.074;8.436;2023-11-21T14:40:42;10.70;99.90
582;DHT22;277;50.074;8.436;2023-11-21T14:43:11;10.70;99.90
582;DHT22;277;50.074;8.436;2023-11-21T14:45:39;10.60;99.90
582;DHT22;277;50.074;8.436;2023-11-21T14:48:07;10.50;99.90
582;DHT22;277;50.074;8.436;2023-11-21T14:50:42;10.60;99.90
582;DHT22;277;50.074;8.436;2023-11-21T14:53:17;10.40;99.90
582;DHT22;277;50.074;8.436;2023-11-21T14:56:06;10.30;99.90
582;DHT22;277;50.074;8.436;2023-11-21T14:58:34;10.30;99.90
582;DHT22;277;50.074;8.436;2023-11-21T15:01:04;10.30;99.90
582;DHT22;277;50.074;8.436;2023-11-21T15:03:31;10.30;99.90
582;DHT22;277;50.074;8.436;2023-11-21T15:06:10;10.40;99.90
582;DHT22;277;50.074;8.436;2023-11-21T15:08:50;10.40;99.90
582;DHT22;277;50.074;8.436;2023-11-21T15:11:46;10.40;99.90
582;DHT22;277;50.074;8.436;2023-11-21T15:14:14;10.40;99.90
582;DHT22;277;50.074;8.436;2023-11-21T15:16:48;10.50;99.90
582;DHT22;277;50.074;8.436;2023-11-21T15:19:20;10.60;99.90
582;DHT22;277;50.074;8.436;2023-11-21T15:21:52;10.50;99.90
582;DHT22;277;50.074;8.436;2023-11-21T15:24:21;10.60;99.90
582;DHT22;277;50.074;8.436;2023-11-21T15:26:49;10.60;99.90
582;DHT22;277;50.074;8.436;2023-11-21T15:29:17;10.60;99.90
582;DHT22;277;50.074;8.436;2023-11-21T15:31:46;10.60;99.90
582;DHT22;277;50.074;8.436;2023-11-21T15:34:15;10.60;99.90
582;DHT22;277;50.074;8.436;2023-11-21T15:36:43;10.70;99.90
582;DHT22;277;50.074;8.436;2023-11-21T15:39:11;10.60;99.90
582;DHT22;277;50.074;8.436;2023-11-21T15:41:40;10.70;99.90
582;DHT22;277;50.074;8.436;2023-11-21T15:44:08;10.60;99.90
582;DHT22;277;50.074;8.436;2023-11-21T15:46:38;10.50;99.90
582;DHT22;277;50.074;8.436;2023-11-21T15:49:08;10.40;99.90
582;DHT22;277;50.074;8.436;2023-11-21T15:51:39;10.40;99.90
582;DHT22;277;50.074;8.436;2023-11-21T15:54:07;10.40;99.90
582;DHT22;277;50.074;8.436;2023-11-21T15:56:35;10.30;99.90
582;DHT22;277;50.074;8.436;2023-11-21T15:59:04;10.20;99.90
582;DHT22;277;50.074;8.436;2023-11-21T16:01:33;10.20;99.90
582;DHT22;277;50.074;8.436;2023-11-21T16:04:01;10.10;99.90
582;DHT22;277;50.074;8.436;2023-11-21T16:06:29;10.20;99.90
582;DHT22;277;50.074;8.436;2023-11-21T16:08:57;10.10;99.90
582;DHT22;277;50.074;8.436;2023-11-21T16:11:25;10.00;99.90
582;DHT22;277;50.074;8.436;2023-11-21T16:13:56;9.90;99.90
582;DHT22;277;50.074;8.436;2023-11-21T16:16:28;9.90;99.90
582;DHT22;277;50.074;8.436;2023-11-21T16:18:56;9.90;99.90
582;DHT22;277;50.074;8.436;2023-11-21T16:21:24;9.90;99.90
582;DHT22;277;50.074;8.436;2023-11-21T16:23:51;9.90;99.90
582;DHT22;277;50.074;8.436;2023-11-21T16:26:20;9.90;99.90
582;DHT22;277;50.074;8.436;2023-11-21T16:28:48;9.90;99.90
582;DHT22;277;50.074;8.436;2023-11-21T16:31:21;9.90;99.90
582;DHT22;277;50.074;8.436;2023-11-21T16:33:50;9.80;99.90
582;DHT22;277;50.074;8.436;2023-11-21T16:36:18;9.80;99.90
582;DHT22;277;50.074;8.436;2023-11-21T16:38:45;9.80;99.90
582;DHT22;277;50.074;8.436;2023-11-21T16:41:13;9.70;99.90
582;DHT22;277;50.074;8.436;2023-11-21T16:43:44;9.70;99.90
582;DHT22;277;50.074;8.436;2023-11-21T16:46:12;9.70;99.90
582;DHT22;277;50.074;8.436;2023-11-21T16:48:40;9.70;99.90
582;DHT22;277;50.074;8.436;2023-11-21T16:51:09;9.80;99.90
582;DHT22;277;50.074;8.436;2023-11-21T16:53:38;9.70;99.90